Time;durP1;ratioP1;P1;durP2;ratioP2;P2;SDS_P1;SDS_P2;PMS_P1;PMS_P2;Temp;Humidity;BMP_temperature;BMP_pressure;BME280_temperature;BME280_humidity;BME280_pressure;Samples;Min_cycle;Max_cycle;Signal;HPM_P1;HPM_P2
2022/01/29 00:01:06;;;;;;;12.20;11.02;;;;;;;11.00;100.00;99976.31;4940269;29;20115;-79
2022/01/29 00:03:32;;;;;;;12.27;10.43;;;;;;;11.19;100.00;99966.31;4937292;29;20478;-79
2022/01/29 00:05:59;;;;;;;14.63;11.52;;;;;;;10.82;100.00;99971.34;4939695;29;20023;-80
2022/01/29 00:08:25;;;;;;;14.75;12.52;;;;;;;10.85;100.00;99968.34;4941392;29;20027;-80
2022/01/29 00:11:01;;;;;;;18.02;15.20;;;;;;;10.63;100.00;99973.41;4940779;29;20040;-79
2022/01/29 00:13:27;;;;;;;17.05;14.20;;;;;;;10.62;100.00;99940.25;4933911;29;20222;-79
2022/01/29 00:15:52;;;;;;;15.50;12.50;;;;;;;10.55;100.00;99936.66;4927335;29;20449;-79
2022/01/29 00:18:18;;;;;;;13.85;10.95;;;;;;;10.45;100.00;99938.69;4914866;29;20028;-78
2022/01/29 00:20:44;;;;;;;15.35;9.68;;;;;;;10.54;100.00;99933.25;4929865;29;20028;-79
2022/01/29 00:23:10;;;;;;;11.30;9.85;;;;;;;10.46;100.00;99945.59;4920014;29;20047;-79
2022/01/29 00:25:35;;;;;;;15.38;10.48;;;;;;;10.40;100.00;99942.63;4904435;29;20044;-79
2022/01/29 00:28:01;;;;;;;11.55;9.15;;;;;;;10.25;100.00;99957.44;4935130;29;20038;-78
2022/01/29 00:30:35;;;;;;;12.50;8.88;;;;;;;10.54;100.00;99938.47;4936444;29;20035;-79
2022/01/29 00:33:02;;;;;;;10.55;7.55;;;;;;;10.42;100.00;99939.84;4935870;29;20031;-79
2022/01/29 00:35:28;;;;;;;9.35;8.02;;;;;;;10.48;100.00;99940.97;4902691;29;20042;-80
2022/01/29 00:37:53;;;;;;;13.65;9.55;;;;;;;10.44;100.00;99945.75;4936069;29;20028;-79
2022/01/29 00:40:20;;;;;;;12.50;10.23;;;;;;;10.45;100.00;99950.00;4935110;29;20031;-78
2022/01/29 00:42:46;;;;;;;15.82;11.18;;;;;;;10.49;100.00;99925.03;4936192;29;20119;-79
2022/01/29 00:45:12;;;;;;;16.23;12.73;;;;;;;10.42;100.00;99935.44;4936453;29;20032;-79
2022/01/29 00:47:38;;;;;;;19.73;13.93;;;;;;;10.52;100.00;99939.63;4935666;29;20122;-79
2022/01/29 00:50:04;;;;;;;20.92;14.68;;;;;;;10.46;100.00;99933.25;4935043;29;21908;-79
2022/01/29 00:52:29;;;;;;;19.02;14.13;;;;;;;10.45;100.00;99938.69;4915347;29;20039;-78
2022/01/29 00:54:55;;;;;;;19.23;14.77;;;;;;;10.46;100.00;99921.97;4916463;29;20122;-77
2022/01/29 00:57:20;;;;;;;17.30;13.77;;;;;;;10.42;100.00;99924.09;4936237;29;20109;-78
2022/01/29 00:59:46;;;;;;;19.95;14.40;;;;;;;10.55;100.00;99928.78;4930580;29;20617;-78
2022/01/29 01:02:13;;;;;;;19.13;13.98;;;;;;;10.54;100.00;99906.16;4928785;29;20034;-78
2022/01/29 01:04:39;;;;;;;28.30;13.77;;;;;;;10.52;100.00;99923.88;4918650;29;20051;-78
2022/01/29 01:07:07;;;;;;;15.98;13.02;;;;;;;10.65;100.00;99915.44;4935634;29;20039;-78
2022/01/29 01:09:33;;;;;;;16.52;12.85;;;;;;;10.83;100.00;99912.56;4917178;29;20486;-78
2022/01/29 01:11:58;;;;;;;16.38;11.43;;;;;;;10.81;100.00;99925.06;4935837;29;20098;-79
2022/01/29 01:14:24;;;;;;;13.57;10.82;;;;;;;10.85;100.00;99914.00;4946895;29;20031;-79
2022/01/29 01:16:50;;;;;;;14.25;11.20;;;;;;;11.00;100.00;99924.59;4928724;29;20106;-79
2022/01/29 01:19:15;;;;;;;12.77;10.32;;;;;;;10.95;100.00;99929.53;4948161;29;20074;-78
2022/01/29 01:21:41;;;;;;;10.55;9.45;;;;;;;10.95;100.00;99923.47;4928069;29;20038;-79
2022/01/29 01:24:07;;;;;;;10.57;9.23;;;;;;;10.89;100.00;99930.25;4943081;29;20040;-79
2022/01/29 01:26:33;;;;;;;9.35;8.38;;;;;;;10.90;100.00;99942.38;4949212;29;20419;-79
2022/01/29 01:28:58;;;;;;;9.57;8.18;;;;;;;10.69;100.00;99933.31;4943431;29;20063;-78
2022/01/29 01:31:25;;;;;;;9.00;7.45;;;;;;;10.92;100.00;99914.13;4930957;29;20125;-78
2022/01/29 01:33:51;;;;;;;7.45;6.55;;;;;;;10.93;100.00;99907.88;4943464;28;20019;-79
2022/01/29 01:36:21;;;;;;;7.97;7.18;;;;;;;11.08;100.00;99900.03;4943631;29;20426;-78
2022/01/29 01:38:54;;;;;;;9.48;6.70;;;;;;;10.98;100.00;99908.16;4948370;29;20103;-78
2022/01/29 01:41:25;;;;;;;7.20;6.50;;;;;;;10.91;100.00;99894.09;4924785;29;20504;-79
2022/01/29 01:43:59;;;;;;;9.82;5.78;;;;;;;11.19;100.00;99901.44;4946853;29;20027;-79
2022/01/29 01:46:25;;;;;;;8.80;5.93;;;;;;;11.16;100.00;99890.47;4925592;29;20485;-79
2022/01/29 01:48:50;;;;;;;8.73;6.13;;;;;;;11.35;100.00;99897.03;4924350;29;20035;-79
2022/01/29 01:51:18;;;;;;;7.72;5.63;;;;;;;11.38;100.00;99880.91;4939391;29;20058;-78
2022/01/29 01:53:44;;;;;;;6.53;5.70;;;;;;;11.25;100.00;99887.59;4945071;29;20035;-78
2022/01/29 01:56:09;;;;;;;7.88;4.95;;;;;;;11.41;100.00;99886.63;4940164;29;20043;-78
2022/01/29 01:58:35;;;;;;;6.63;5.30;;;;;;;11.37;100.00;99905.56;4941923;29;20081;-78
2022/01/29 02:01:00;;;;;;;5.55;4.18;;;;;;;11.18;100.00;99881.41;4942815;29;20134;-78
2022/01/29 02:03:29;;;;;;;10.10;3.83;;;;;;;11.39;100.00;99879.91;4929263;29;20474;-78
2022/01/29 02:05:55;;;;;;;8.75;4.32;;;;;;;11.63;100.00;99878.06;4948280;29;20038;-78
2022/01/29 02:08:21;;;;;;;6.78;4.20;;;;;;;11.55;100.00;99878.94;4945054;29;20445;-78
2022/01/29 02:10:48;;;;;;;7.15;3.97;;;;;;;11.63;100.00;99859.63;4942043;29;20028;-79
2022/01/29 02:13:14;;;;;;;6.07;3.15;;;;;;;11.62;100.00;99871.97;4947898;29;20062;-78
2022/01/29 02:15:40;;;;;;;3.95;3.33;;;;;;;11.88;100.00;99864.63;4948352;29;20038;-79
2022/01/29 02:18:13;;;;;;;5.47;4.18;;;;;;;11.77;100.00;99863.25;4940794;29;20028;-79
2022/01/29 02:20:39;;;;;;;6.30;3.72;;;;;;;11.89;100.00;99853.09;4941484;29;20047;-78
2022/01/29 02:23:05;;;;;;;5.57;3.83;;;;;;;11.77;100.00;99863.25;4942218;29;20031;-78
2022/01/29 02:25:43;;;;;;;7.10;4.05;;;;;;;11.87;100.00;99853.25;4926318;29;20039;-79
2022/01/29 02:28:11;;;;;;;4.22;3.63;;;;;;;11.94;100.00;99869.13;4929413;29;20098;-79
2022/01/29 02:30:39;;;;;;;4.13;3.70;;;;;;;11.75;100.00;99881.84;4909227;29;20043;-80
2022/01/29 02:33:09;;;;;;;7.20;3.40;;;;;;;11.70;100.00;99844.75;4927871;29;20451;-79
2022/01/29 02:35:43;;;;;;;6.55;3.53;;;;;;;11.67;100.00;99863.53;4947152;29;20034;-78
2022/01/29 02:38:10;;;;;;;6.28;3.30;;;;;;;11.77;100.00;99831.69;4910230;29;20063;-78
2022/01/29 02:40:45;;;;;;;3.92;3.63;;;;;;;11.69;100.00;99830.81;4941133;29;20110;-79
2022/01/29 02:43:12;;;;;;;4.93;3.33;;;;;;;11.95;100.00;99836.56;4943171;29;20043;-78
2022/01/29 02:45:40;;;;;;;6.15;3.30;;;;;;;12.04;100.00;99811.81;4919366;29;20039;-78
2022/01/29 02:48:06;;;;;;;5.55;3.25;;;;;;;11.92;100.00;99810.63;4921949;29;20035;-78
2022/01/29 02:50:32;;;;;;;4.57;2.95;;;;;;;12.03;100.00;99786.50;4946867;29;20627;-78
2022/01/29 02:52:57;;;;;;;5.30;2.45;;;;;;;11.98;100.00;99776.50;4924745;29;20062;-78
2022/01/29 02:55:24;;;;;;;3.83;2.83;;;;;;;12.00;100.00;99756.09;4924174;29;20039;-78
2022/01/29 02:57:50;;;;;;;3.10;2.80;;;;;;;11.96;100.00;99773.25;4942702;29;20032;-79
2022/01/29 03:00:18;;;;;;;3.65;2.50;;;;;;;11.80;100.00;99765.56;4937946;29;20548;-78
2022/01/29 03:02:44;;;;;;;4.90;2.75;;;;;;;11.89;100.00;99739.97;4943242;29;20437;-77
2022/01/29 03:05:09;;;;;;;2.88;2.10;;;;;;;12.02;100.00;99723.53;4938759;29;20043;-78
2022/01/29 03:07:37;;;;;;;3.42;2.42;;;;;;;11.83;100.00;99725.75;4922878;29;20039;-78
2022/01/29 03:10:04;;;;;;;2.75;2.38;;;;;;;11.86;100.00;99710.41;4939581;29;20035;-78
2022/01/29 03:12:30;;;;;;;3.05;2.60;;;;;;;11.86;100.00;99697.25;4896167;29;1301273;-78
2022/01/29 03:14:58;;;;;;;3.20;2.33;;;;;;;11.62;100.00;99674.75;4942966;29;20070;-78
2022/01/29 03:17:24;;;;;;;2.65;2.45;;;;;;;11.65;100.00;99665.69;4926564;29;20061;-78
2022/01/29 03:19:52;;;;;;;5.10;2.88;;;;;;;11.82;100.00;99672.34;4944955;29;20549;-78
2022/01/29 03:22:18;;;;;;;3.22;2.85;;;;;;;11.66;100.00;99662.84;4946697;29;20034;-78
2022/01/29 03:24:44;;;;;;;4.93;2.65;;;;;;;11.94;100.00;99645.50;4940656;29;20023;-78
2022/01/29 03:27:10;;;;;;;3.72;2.85;;;;;;;11.66;100.00;99662.84;4924553;29;20098;-78
2022/01/29 03:29:36;;;;;;;5.53;2.78;;;;;;;11.62;100.00;99639.75;4945945;29;20443;-78
2022/01/29 03:32:02;;;;;;;4.63;3.00;;;;;;;11.68;100.00;99657.41;4911106;29;20027;-78
2022/01/29 03:34:28;;;;;;;6.07;2.85;;;;;;;11.52;100.00;99638.22;4944377;29;20031;-78
2022/01/29 03:36:55;;;;;;;5.65;3.30;;;;;;;11.55;100.00;99658.88;4944345;29;20082;-78
2022/01/29 03:39:23;;;;;;;5.78;3.00;;;;;;;11.54;100.00;99675.66;4941981;29;20365;-78
2022/01/29 03:41:48;;;;;;;3.75;3.33;;;;;;;11.55;100.00;99673.88;4939365;29;20482;-79
2022/01/29 03:44:14;;;;;;;7.25;3.67;;;;;;;11.46;100.00;99652.13;4935412;29;20087;-79
2022/01/29 03:46:39;;;;;;;5.40;3.72;;;;;;;11.62;100.00;99635.31;4939145;29;20379;-79
2022/01/29 03:49:05;;;;;;;5.07;3.83;;;;;;;11.53;100.00;99646.94;4940814;29;20474;-79
2022/01/29 03:51:30;;;;;;;5.88;3.47;;;;;;;11.48;100.00;99647.50;4940520;29;20062;-79
2022/01/29 03:53:56;;;;;;;4.72;3.42;;;;;;;11.37;100.00;99632.19;4944382;29;20110;-79
2022/01/29 03:56:21;;;;;;;3.38;3.08;;;;;;;11.48;100.00;99628.25;4940371;29;20740;-79
2022/01/29 03:58:47;;;;;;;3.58;3.13;;;;;;;11.26;100.00;99620.34;4941668;29;20039;-79
2022/01/29 04:01:12;;;;;;;5.65;2.70;;;;;;;11.43;100.00;99606.00;4944553;29;20031;-79
2022/01/29 04:03:38;;;;;;;2.90;2.30;;;;;;;11.38;100.00;99612.78;4941732;29;20176;-79
2022/01/29 04:06:03;;;;;;;3.40;2.42;;;;;;;11.13;100.00;99606.06;4948436;29;20470;-78
2022/01/29 04:08:31;;;;;;;3.60;2.00;;;;;;;11.04;100.00;99595.84;4940671;29;20036;-78
2022/01/29 04:10:56;;;;;;;4.65;1.85;;;;;;;11.11;100.00;99591.47;4925984;29;20023;-79
2022/01/29 04:13:25;;;;;;;2.22;2.03;;;;;;;10.99;100.00;99584.06;4944193;29;20061;-78
2022/01/29 04:15:51;;;;;;;2.22;1.60;;;;;;;11.22;100.00;99583.13;4944309;29;20028;-79
2022/01/29 04:18:20;;;;;;;3.65;1.70;;;;;;;11.30;100.00;99590.09;4924246;29;20489;-78
2022/01/29 04:20:46;;;;;;;4.40;1.85;;;;;;;11.21;100.00;99578.88;4943471;29;20032;-79
2022/01/29 04:23:12;;;;;;;4.32;1.33;;;;;;;11.27;100.00;99591.28;4924311;29;20042;-78
2022/01/29 04:25:37;;;;;;;3.60;1.50;;;;;;;11.16;100.00;99588.31;4928998;29;20027;-78
2022/01/29 04:28:04;;;;;;;4.50;1.70;;;;;;;11.25;100.00;99605.56;4943696;29;20441;-78
2022/01/29 04:30:33;;;;;;;4.25;1.92;;;;;;;11.04;100.00;99585.34;4940593;29;20370;-78
2022/01/29 04:36:01;;;;;;;4.45;1.70;;;;;;;11.00;100.00;99569.94;4897345;29;20142;-78
2022/01/29 04:38:28;;;;;;;2.40;1.70;;;;;;;11.12;100.00;99566.84;4939043;29;20082;-78
2022/01/29 04:40:56;;;;;;;4.70;2.28;;;;;;;11.21;100.00;99567.53;4939075;29;20162;-78
2022/01/29 04:43:22;;;;;;;3.90;1.80;;;;;;;11.19;100.00;99551.16;4940538;29;20038;-78
2022/01/29 04:45:48;;;;;;;5.32;2.33;;;;;;;11.07;100.00;99549.00;4939189;29;20118;-79
2022/01/29 04:48:14;;;;;;;4.78;2.40;;;;;;;11.02;100.00;99546.09;4943835;29;20114;-78
2022/01/29 04:50:40;;;;;;;5.90;3.00;;;;;;;10.85;100.00;99524.50;4939486;29;20032;-79
2022/01/29 04:53:06;;;;;;;6.25;3.70;;;;;;;10.83;100.00;99529.94;4927005;29;20537;-78
2022/01/29 04:55:32;;;;;;;8.00;3.90;;;;;;;10.95;100.00;99485.63;4942337;29;20127;-78
2022/01/29 04:57:58;;;;;;;9.35;5.95;;;;;;;10.77;100.00;99574.50;4925144;29;20027;-79
2022/01/29 05:00:24;;;;;;;11.13;6.20;;;;;;;10.78;100.00;99474.53;4941692;29;20031;-80
2022/01/29 05:02:54;;;;;;;5.32;4.90;;;;;;;10.84;100.00;99470.38;4939950;29;20027;-80
2022/01/29 05:05:22;;;;;;;6.38;5.32;;;;;;;10.74;100.00;99461.97;4938435;29;20035;-79
2022/01/29 05:07:51;;;;;;;4.65;4.05;;;;;;;10.61;100.00;99463.44;4944364;29;20041;-79
2022/01/29 05:10:19;;;;;;;5.47;4.53;;;;;;;10.76;100.00;99467.84;4919557;29;20050;-80
2022/01/29 05:12:53;;;;;;;7.75;4.50;;;;;;;10.70;100.00;99464.94;4941985;29;20047;-80
2022/01/29 05:28:44;;;;;;;6.05;3.50;;;;;;;10.65;100.00;99529.50;4918451;29;20035;-80
2022/01/29 05:31:11;;;;;;;4.05;3.55;;;;;;;10.66;100.00;99589.72;4936237;29;20047;-80
2022/01/29 05:33:36;;;;;;;7.75;3.83;;;;;;;10.99;100.00;99581.44;4934494;29;20031;-80
2022/01/29 05:36:02;;;;;;;5.25;4.47;;;;;;;10.84;100.00;99584.09;4936040;29;20461;-80
2022/01/29 05:38:28;;;;;;;9.88;4.90;;;;;;;10.75;100.00;99660.50;4933507;29;20027;-79
2022/01/29 05:40:55;;;;;;;6.13;3.80;;;;;;;10.80;100.00;99605.63;4928502;29;20127;-80
2022/01/29 05:43:22;;;;;;;6.30;3.60;;;;;;;10.98;100.00;99645.47;4936041;29;20458;-80
2022/01/29 05:45:48;;;;;;;11.07;4.68;;;;;;;10.91;100.00;99605.19;4936181;29;20501;-80
2022/01/29 05:48:13;;;;;;;7.28;3.92;;;;;;;11.08;100.00;99618.91;4901576;29;20059;-79
2022/01/29 05:50:39;;;;;;;7.18;3.95;;;;;;;11.05;100.00;99626.38;4935025;29;20110;-79
2022/01/29 05:53:05;;;;;;;16.80;4.05;;;;;;;11.09;100.00;99627.63;4919230;29;20036;-79
2022/01/29 05:55:31;;;;;;;5.05;3.92;;;;;;;11.21;100.00;99638.47;4934915;29;20114;-79
2022/01/29 05:57:57;;;;;;;9.57;4.05;;;;;;;11.40;100.00;99621.34;4936138;29;20127;-81
2022/01/29 06:00:22;;;;;;;11.68;3.88;;;;;;;11.10;100.00;99608.25;4916964;29;20122;-81
2022/01/29 06:02:59;;;;;;;7.93;3.28;;;;;;;11.06;100.00;99647.19;4935810;29;20454;-81
2022/01/29 06:05:25;;;;;;;5.80;2.80;;;;;;;11.28;100.00;99639.38;4935831;29;20119;-80
2022/01/29 06:07:51;;;;;;;7.38;2.72;;;;;;;11.16;100.00;99602.25;4934820;29;20385;-81
2022/01/29 06:10:17;;;;;;;9.55;2.50;;;;;;;11.10;100.00;99616.13;4935849;29;20105;-82
2022/01/29 06:12:43;;;;;;;7.93;3.15;;;;;;;11.06;100.00;99605.16;4935818;29;20509;-81
2022/01/29 06:15:09;;;;;;;8.13;2.90;;;;;;;11.14;100.00;99610.31;4935108;29;20036;-81
2022/01/29 06:17:34;;;;;;;8.38;3.03;;;;;;;11.10;100.00;99605.63;4935914;29;20043;-82
2022/01/29 06:20:00;;;;;;;6.57;2.70;;;;;;;10.94;100.00;99638.16;4934682;29;20034;-83
2022/01/29 06:22:27;;;;;;;4.93;2.90;;;;;;;10.99;100.00;99604.28;4917536;29;20047;-83
2022/01/29 06:24:52;;;;;;;8.38;3.28;;;;;;;11.17;100.00;99606.50;4933370;29;20537;-82
2022/01/29 06:27:18;;;;;;;5.63;2.70;;;;;;;10.94;100.00;99596.13;4917326;29;20111;-83
2022/01/29 06:29:44;;;;;;;9.75;2.80;;;;;;;11.06;100.00;99593.84;4935495;29;20063;-82
2022/01/29 06:32:10;;;;;;;8.02;3.00;;;;;;;11.08;100.00;99602.38;4935192;29;20036;-82
2022/01/29 06:34:36;;;;;;;12.55;4.43;;;;;;;10.95;100.00;99582.81;4917554;29;20036;-82
2022/01/29 06:37:02;;;;;;;12.63;4.13;;;;;;;11.13;100.00;99607.88;4934997;29;20064;-80
2022/01/29 06:39:28;;;;;;;11.25;3.72;;;;;;;10.75;100.00;99565.97;4916813;29;20036;-82
2022/01/29 06:41:54;;;;;;;9.88;3.83;;;;;;;10.98;100.00;99555.38;4934493;29;20032;-82
2022/01/29 06:44:19;;;;;;;9.95;3.88;;;;;;;10.86;100.00;99566.31;4933581;29;20040;-83
2022/01/29 06:46:45;;;;;;;12.27;3.75;;;;;;;11.03;100.00;99557.44;4918117;29;21626;-82
2022/01/29 06:49:11;;;;;;;9.27;3.72;;;;;;;10.99;100.00;99560.41;4934541;29;20028;-82
2022/01/29 06:51:38;;;;;;;13.00;3.75;;;;;;;11.00;100.00;99559.44;4934961;29;20039;-82
2022/01/29 06:54:03;;;;;;;9.50;3.35;;;;;;;10.80;100.00;99563.63;4917452;29;20030;-82
2022/01/29 06:56:29;;;;;;;7.80;3.38;;;;;;;11.04;100.00;99559.88;4935415;29;20067;-83
2022/01/29 06:58:55;;;;;;;9.48;3.05;;;;;;;11.06;100.00;99571.00;4934647;29;20071;-83
2022/01/29 07:01:20;;;;;;;6.68;2.35;;;;;;;11.02;100.00;99576.84;4934625;29;20039;-83
2022/01/29 07:03:46;;;;;;;7.82;2.42;;;;;;;11.08;100.00;99607.63;4935541;29;20200;-83
2022/01/29 07:06:12;;;;;;;7.63;2.67;;;;;;;11.21;100.00;99563.13;4934454;29;20043;-83
2022/01/29 07:08:39;;;;;;;10.35;3.30;;;;;;;11.19;100.00;99575.59;4934065;29;20031;-83
2022/01/29 07:11:05;;;;;;;8.05;2.92;;;;;;;11.13;100.00;99568.47;4933631;29;20030;-83
2022/01/29 07:13:31;;;;;;;10.27;3.80;;;;;;;11.12;100.00;99566.84;4939359;29;20047;-84
2022/01/29 07:15:57;;;;;;;11.35;3.15;;;;;;;11.22;100.00;99537.63;4925939;29;20116;-85
2022/01/29 07:18:22;;;;;;;11.02;3.75;;;;;;;11.19;100.00;99540.63;4911474;29;20112;-85
2022/01/29 07:20:48;;;;;;;7.35;3.20;;;;;;;11.33;100.00;99536.31;4944604;29;20456;-84
2022/01/29 07:23:14;;;;;;;10.07;3.20;;;;;;;11.23;100.00;99563.75;4943071;29;20054;-86
2022/01/29 07:25:40;;;;;;;8.43;3.22;;;;;;;11.19;100.00;99554.56;4928579;29;20027;-83
2022/01/29 07:28:05;;;;;;;16.00;3.33;;;;;;;11.18;100.00;99545.06;4925502;29;20027;-85
2022/01/29 07:30:31;;;;;;;9.73;3.88;;;;;;;11.18;100.00;99533.75;4927350;29;20053;-86
2022/01/29 07:32:56;;;;;;;14.77;3.78;;;;;;;11.29;100.00;99531.44;4946560;29;20367;-85
2022/01/29 07:35:22;;;;;;;10.55;3.80;;;;;;;11.30;100.00;99584.84;4926504;29;20035;-85
2022/01/29 07:37:48;;;;;;;13.70;4.07;;;;;;;11.11;100.00;99565.22;4944485;29;20115;-85
2022/01/29 07:40:14;;;;;;;10.52;4.35;;;;;;;11.32;100.00;99572.31;4925128;29;20514;-84
2022/01/29 07:42:40;;;;;;;10.25;3.60;;;;;;;11.38;100.00;99592.59;4925655;29;20027;-83
2022/01/29 07:45:06;;;;;;;13.63;3.45;;;;;;;11.38;100.00;99595.22;4945145;29;20106;-84
2022/01/29 07:47:33;;;;;;;13.57;3.25;;;;;;;11.53;100.00;99589.09;4942327;29;20035;-84
2022/01/29 07:49:59;;;;;;;9.63;3.15;;;;;;;11.41;100.00;99594.06;4922596;29;20027;-84
2022/01/29 07:52:25;;;;;;;13.93;4.22;;;;;;;11.53;100.00;99594.38;4942520;29;20044;-85
2022/01/29 07:54:50;;;;;;;12.40;3.13;;;;;;;11.58;100.00;99576.22;4944263;29;20082;-84
2022/01/29 07:57:16;;;;;;;12.70;2.92;;;;;;;11.74;100.00;99572.50;4943170;29;20481;-84
2022/01/29 07:59:42;;;;;;;10.55;2.33;;;;;;;11.65;100.00;99592.06;4944322;29;20028;-84
2022/01/29 08:02:08;;;;;;;11.35;3.10;;;;;;;11.42;100.00;99588.59;4943089;29;20038;-83
2022/01/29 08:04:34;;;;;;;5.80;3.05;;;;;;;11.65;100.00;99560.50;4927097;29;20030;-84
2022/01/29 08:07:00;;;;;;;11.23;2.80;;;;;;;11.53;100.00;99563.63;4936910;29;20423;-84
2022/01/29 08:09:25;;;;;;;9.38;2.63;;;;;;;11.70;100.00;99581.78;4923441;29;20083;-85
2022/01/29 08:11:51;;;;;;;10.88;2.33;;;;;;;11.67;100.00;99571.63;4946240;29;20027;-80
2022/01/29 08:14:16;;;;;;;13.07;2.90;;;;;;;11.79;100.00;99580.66;4929523;29;20051;-82
2022/01/29 08:16:42;;;;;;;10.85;2.53;;;;;;;11.75;100.00;99587.28;4891194;29;20127;-82
2022/01/29 08:19:07;;;;;;;7.22;2.63;;;;;;;11.67;100.00;99600.56;4928345;29;20087;-81
2022/01/29 08:21:33;;;;;;;10.05;3.10;;;;;;;11.53;100.00;99579.38;4921402;29;20115;-83
2022/01/29 08:23:58;;;;;;;7.47;2.90;;;;;;;11.85;100.00;99571.19;4925501;29;20040;-84
2022/01/29 08:26:24;;;;;;;10.65;3.20;;;;;;;11.77;100.00;99580.00;4923130;29;20115;-82
2022/01/29 08:28:50;;;;;;;11.15;3.00;;;;;;;11.92;100.00;99587.03;4902629;29;20542;-81
2022/01/29 08:31:15;;;;;;;10.02;3.50;;;;;;;11.88;100.00;99562.09;4925570;29;20028;-81
2022/01/29 08:33:41;;;;;;;12.20;3.13;;;;;;;11.81;100.00;99570.75;4923991;29;20494;-81
2022/01/29 08:36:08;;;;;;;12.05;3.05;;;;;;;12.02;100.00;99548.09;4905372;29;20050;-83
2022/01/29 08:38:33;;;;;;;11.73;3.33;;;;;;;11.88;100.00;99541.84;4925997;29;20023;-80
2022/01/29 08:41:01;;;;;;;12.82;3.47;;;;;;;11.89;100.00;99534.78;4902640;29;20063;-81
2022/01/29 08:43:27;;;;;;;13.40;3.25;;;;;;;11.72;100.00;99535.06;4925148;29;20062;-82
2022/01/29 08:45:55;;;;;;;11.05;3.40;;;;;;;11.82;100.00;99532.94;4910246;29;20070;-78
2022/01/29 08:48:21;;;;;;;11.75;3.47;;;;;;;11.83;100.00;99537.19;4909874;29;20119;-81
2022/01/29 08:50:47;;;;;;;14.45;3.10;;;;;;;11.97;100.00;99543.34;4923404;29;20028;-81
2022/01/29 08:53:15;;;;;;;8.80;3.35;;;;;;;11.73;100.00;99547.22;4910597;29;20039;-81
2022/01/29 08:55:41;;;;;;;14.45;3.75;;;;;;;11.43;100.00;99547.34;4923634;29;20043;-80
2022/01/29 08:58:08;;;;;;;9.95;4.10;;;;;;;10.99;100.00;99552.53;4926253;29;20475;-79
2022/01/29 09:00:35;;;;;;;17.45;4.50;;;;;;;10.91;100.00;99555.28;4911736;29;20368;-80
2022/01/29 09:03:02;;;;;;;10.55;5.07;;;;;;;10.83;100.00;99563.28;4924238;29;20505;-81
2022/01/29 09:05:28;;;;;;;16.17;5.65;;;;;;;10.82;100.00;99553.78;4924195;29;20024;-80
2022/01/29 09:07:54;;;;;;;17.08;5.82;;;;;;;10.67;100.00;99549.34;4926448;29;20386;-80
2022/01/29 09:10:19;;;;;;;17.40;6.35;;;;;;;10.84;100.00;99549.94;4910396;29;20439;-81
2022/01/29 09:12:45;;;;;;;15.90;6.50;;;;;;;10.96;100.00;99549.47;4931784;29;20051;-81
2022/01/29 09:15:11;;;;;;;12.50;7.20;;;;;;;10.75;100.00;99560.72;4926825;29;20039;-81
2022/01/29 09:17:39;;;;;;;18.30;7.63;;;;;;;10.80;100.00;99519.81;4945827;29;20051;-81
2022/01/29 09:20:09;;;;;;;19.02;7.63;;;;;;;10.75;100.00;99510.84;4944424;29;20664;-81
2022/01/29 09:22:36;;;;;;;15.57;8.07;;;;;;;10.61;100.00;99497.56;4946712;29;20024;-81
2022/01/29 09:25:02;;;;;;;14.35;7.28;;;;;;;10.46;100.00;99515.16;4943758;29;20114;-82
2022/01/29 09:27:27;;;;;;;23.23;7.72;;;;;;;10.67;100.00;99496.00;4947734;29;20606;-81
2022/01/29 09:29:53;;;;;;;14.85;6.70;;;;;;;10.76;100.00;99480.97;4926198;29;20478;-83
2022/01/29 09:32:19;;;;;;;13.07;6.53;;;;;;;10.62;100.00;99493.94;4925127;29;20382;-81
2022/01/29 09:34:45;;;;;;;17.58;5.90;;;;;;;10.62;100.00;99503.63;4947489;29;21825;-81
2022/01/29 09:37:10;;;;;;;15.70;6.40;;;;;;;10.68;100.00;99477.47;4927358;29;20031;-81
2022/01/29 09:39:37;;;;;;;10.25;5.40;;;;;;;10.89;100.00;99482.91;4912171;29;20553;-81
2022/01/29 09:42:03;;;;;;;12.20;4.65;;;;;;;10.67;100.00;99481.09;4946090;29;20031;-81
2022/01/29 09:44:30;;;;;;;11.55;5.45;;;;;;;10.74;100.00;99496.91;4945408;29;20290;-82
2022/01/29 09:46:56;;;;;;;11.90;4.40;;;;;;;10.87;100.00;99483.13;4929726;29;20032;-82
2022/01/29 09:49:22;;;;;;;15.98;5.30;;;;;;;10.83;100.00;99484.50;4925915;29;20115;-81
2022/01/29 09:51:47;;;;;;;15.40;5.07;;;;;;;10.85;100.00;99499.03;4949053;29;20179;-81
2022/01/29 09:54:13;;;;;;;12.88;4.93;;;;;;;10.97;100.00;99501.22;4921424;29;20036;-81
2022/01/29 09:56:39;;;;;;;14.82;4.38;;;;;;;10.93;100.00;99505.22;4923276;29;20035;-82
2022/01/29 09:59:04;;;;;;;11.85;3.88;;;;;;;10.96;100.00;99505.63;4925697;29;20553;-82
2022/01/29 10:01:30;;;;;;;15.82;3.85;;;;;;;11.04;100.00;99511.78;4929932;29;20031;-82
2022/01/29 10:04:04;;;;;;;13.40;4.38;;;;;;;11.25;100.00;99516.22;4945914;29;20032;-81
2022/01/29 10:06:31;;;;;;;11.20;2.78;;;;;;;11.29;100.00;99505.16;4941922;29;20035;-82
2022/01/29 10:08:59;;;;;;;8.60;2.63;;;;;;;11.32;100.00;99508.41;4928765;29;20032;-82
2022/01/29 10:11:26;;;;;;;14.82;2.40;;;;;;;11.37;100.00;99467.44;4929901;29;20031;-81
2022/01/29 10:13:57;;;;;;;11.30;2.60;;;;;;;11.63;100.00;99509.91;4931218;29;20081;-82
2022/01/29 10:16:28;;;;;;;10.18;2.78;;;;;;;11.78;100.00;99486.16;4932759;29;20086;-81
2022/01/29 10:19:11;;;;;;;12.43;2.13;;;;;;;11.69;100.00;99482.84;4942483;29;20081;-82
2022/01/29 10:21:47;;;;;;;6.87;2.03;;;;;;;11.67;100.00;99501.44;4943546;29;20032;-80
2022/01/29 10:24:19;;;;;;;7.20;2.10;;;;;;;11.87;100.00;99500.78;4939356;29;20035;-79
2022/01/29 10:26:49;;;;;;;6.72;2.15;;;;;;;11.79;100.00;99485.97;4923994;29;20030;-79
2022/01/29 10:29:23;;;;;;;7.50;1.73;;;;;;;12.04;100.00;99477.66;4944766;29;20063;-79
2022/01/29 10:31:55;;;;;;;7.22;2.00;;;;;;;11.97;100.00;99460.97;4943938;29;20097;-79
2022/01/29 10:34:22;;;;;;;7.53;1.67;;;;;;;11.97;100.00;99471.50;4941119;29;20813;-80
2022/01/29 10:37:12;;;;;;;7.30;1.75;;;;;;;12.08;100.00;99443.88;4936601;29;20047;-79
2022/01/29 10:39:39;;;;;;;6.45;2.22;;;;;;;12.08;100.00;99468.38;4935340;29;20101;-80
2022/01/29 10:42:14;;;;;;;5.20;2.08;;;;;;;12.27;100.00;99463.41;4945253;29;20106;-79
2022/01/29 10:44:48;;;;;;;7.13;1.80;;;;;;;12.16;100.00;99495.53;4941269;29;20094;-80
2022/01/29 10:47:14;;;;;;;12.25;2.38;;;;;;;12.13;100.00;99467.81;4915906;29;20090;-79
2022/01/29 10:50:06;;;;;;;10.00;2.33;;;;;;;12.22;100.00;99497.41;4924337;29;21818;-79
2022/01/29 10:52:34;;;;;;;5.32;1.40;;;;;;;12.17;100.00;99468.19;4921147;29;20063;-80
2022/01/29 10:55:02;;;;;;;8.52;1.83;;;;;;;12.25;100.00;99518.88;4942164;29;20027;-81
2022/01/29 10:57:41;;;;;;;7.60;1.73;;;;;;;12.36;100.00;99478.03;4943781;29;20522;-81
2022/01/29 11:00:23;;;;;;;6.00;1.20;;;;;;;12.37;100.00;99486.75;4944378;29;20058;-80
2022/01/29 11:02:51;;;;;;;5.35;1.58;;;;;;;12.03;100.00;99467.31;4913096;29;20585;-82
2022/01/29 11:05:17;;;;;;;5.38;1.05;;;;;;;12.32;100.00;99457.56;4943667;28;20042;-81
2022/01/29 11:07:51;;;;;;;8.57;1.50;;;;;;;12.17;100.00;99452.41;4944631;29;20474;-84
2022/01/29 11:10:18;;;;;;;5.80;1.38;;;;;;;12.22;100.00;99471.09;4903306;29;20482;-82
2022/01/29 11:12:47;;;;;;;3.70;1.10;;;;;;;12.30;100.00;99463.03;4927187;29;20455;-81
2022/01/29 11:15:15;;;;;;;8.68;2.05;;;;;;;12.19;100.00;99451.22;4922442;29;20065;-81
2022/01/29 11:17:43;;;;;;;5.05;1.70;;;;;;;11.85;100.00;99477.31;4926174;29;20377;-79
2022/01/29 11:20:10;;;;;;;4.63;1.65;;;;;;;11.95;100.00;99497.19;4945583;29;20082;-80
2022/01/29 11:22:39;;;;;;;9.82;1.33;;;;;;;11.76;100.00;99483.72;4941049;29;20501;-81
2022/01/29 11:25:09;;;;;;;5.60;1.58;;;;;;;11.76;100.00;99503.94;4907613;29;20043;-79
2022/01/29 11:27:37;;;;;;;12.13;2.55;;;;;;;11.98;100.00;99465.22;4925240;29;20032;-79
2022/01/29 11:30:12;;;;;;;7.18;1.73;;;;;;;12.19;100.00;99474.13;4942548;29;20114;-80
2022/01/29 11:32:42;;;;;;;11.73;1.88;;;;;;;12.44;100.00;99466.53;4943303;29;20756;-80
2022/01/29 11:35:08;;;;;;;9.65;2.35;;;;;;;12.37;100.00;99458.59;4947855;29;21728;-81
2022/01/29 11:37:43;;;;;;;6.47;2.10;;;;;;;12.49;100.00;99455.41;4941201;29;20020;-79